PWSweather.com
Personal Weather Stations
Station Observations
LEONMETEO
LeonES 24008

LeonES 24008

Lat: 42.6055559, Lon: -5.5752249

Elevation: 2690

Station Type: La Crosse WS3600

Latest ConditionsUpdated 6:55:28 AM GMT+01:01 Wednesday, Oct 1, 2014
Currently Today's Max Today's Min Today's Average
Temperature 51.4°F10.8°C 55.9°F13.3°C 51.0°F10.6°C 52.9°F11.6°C
Dew Point 46.4°F8.0°C 48.2°F9.0°C 45.8°F7.7°C 46.6°F8.1°C
Winds - N16091.8 kmh N Calm Calm - Calm Calm
Wind Gusts -- -- - -
Humidity 83% 83% 75% 80%
Pressure 30.07 in1018.3 mb 30.09 in1019.0 mb 30.07 in1018.3 mb -
Hour Temp Dew Point Humidity Winds Wind Gusts Pressure Precip Precip Rate Daily Precip Total
06:55 AM 51.4°F10.8°C 46.4°F8.0°C 83% - N16091.8 kmh N -- 30.07 in1018.3 mb 0.00 in0.0 mm 0.00 in/hr0.0 mm/hr 0.00 in0.0 mm
06:50 AM 51.4°F10.8°C 46.4°F8.0°C 83% - N16091.8 kmh N -- 30.07 in1018.3 mb 0.00 in0.0 mm 0.00 in/hr0.0 mm/hr 0.00 in0.0 mm
06:45 AM 51.4°F10.8°C 46.4°F8.0°C 83% - N16091.8 kmh N -- 30.07 in1018.3 mb 0.00 in0.0 mm 0.00 in/hr0.0 mm/hr 0.00 in0.0 mm
06:40 AM 51.4°F10.8°C 46.4°F8.0°C 83% - N16091.8 kmh N -- 30.07 in1018.3 mb 0.00 in0.0 mm 0.00 in/hr0.0 mm/hr 0.00 in0.0 mm
06:35 AM 51.4°F10.8°C 46.4°F8.0°C 83% - N16091.8 kmh N -- 30.07 in1018.3 mb 0.00 in0.0 mm 0.00 in/hr0.0 mm/hr 0.00 in0.0 mm
06:30 AM 51.4°F10.8°C 46.4°F8.0°C 83% - N16091.8 kmh N -- 30.07 in1018.3 mb 0.00 in0.0 mm 0.00 in/hr0.0 mm/hr 0.00 in0.0 mm
06:25 AM 51.2°F10.7°C 46.2°F7.9°C 83% - N16091.8 kmh N -- 30.07 in1018.3 mb 0.00 in0.0 mm 0.00 in/hr0.0 mm/hr 0.00 in0.0 mm
06:20 AM 51.0°F10.6°C 46.0°F7.8°C 83% - N16091.8 kmh N -- 30.07 in1018.3 mb 0.00 in0.0 mm 0.00 in/hr0.0 mm/hr 0.00 in0.0 mm
06:15 AM 51.2°F10.7°C 45.9°F7.7°C 82% - N16091.8 kmh N -- 30.07 in1018.3 mb 0.00 in0.0 mm 0.00 in/hr0.0 mm/hr 0.00 in0.0 mm
06:10 AM 51.2°F10.7°C 45.9°F7.7°C 82% - N16091.8 kmh N -- 30.07 in1018.3 mb 0.00 in0.0 mm 0.00 in/hr0.0 mm/hr 0.00 in0.0 mm
06:05 AM 51.2°F10.7°C 45.9°F7.7°C 82% - N16091.8 kmh N -- 30.07 in1018.3 mb 0.00 in0.0 mm 0.00 in/hr0.0 mm/hr 0.00 in0.0 mm
06:00 AM 51.4°F10.8°C 45.8°F7.7°C 82% - N16091.8 kmh N -- 30.07 in1018.3 mb 0.00 in0.0 mm 0.00 in/hr0.0 mm/hr 0.00 in0.0 mm
05:55 AM 51.4°F10.8°C 45.8°F7.7°C 82% - N16091.8 kmh N -- 30.07 in1018.3 mb 0.00 in0.0 mm 0.00 in/hr0.0 mm/hr 0.00 in0.0 mm
05:50 AM 51.4°F10.8°C 45.8°F7.7°C 82% - N16091.8 kmh N -- 30.07 in1018.3 mb 0.00 in0.0 mm 0.00 in/hr0.0 mm/hr 0.00 in0.0 mm
05:45 AM 51.4°F10.8°C 45.8°F7.7°C 82% - N16091.8 kmh N -- 30.07 in1018.3 mb 0.00 in0.0 mm 0.00 in/hr0.0 mm/hr 0.00 in0.0 mm
05:40 AM 51.4°F10.8°C 45.8°F7.7°C 82% - N16091.8 kmh N -- 30.07 in1018.3 mb 0.00 in0.0 mm 0.00 in/hr0.0 mm/hr 0.00 in0.0 mm
05:35 AM 51.4°F10.8°C 45.8°F7.7°C 82% - N16091.8 kmh N -- 30.07 in1018.3 mb 0.00 in0.0 mm 0.00 in/hr0.0 mm/hr 0.00 in0.0 mm
05:30 AM 51.4°F10.8°C 45.8°F7.7°C 82% - N16091.8 kmh N -- 30.07 in1018.3 mb 0.00 in0.0 mm 0.00 in/hr0.0 mm/hr 0.00 in0.0 mm
05:25 AM 51.4°F10.8°C 45.8°F7.7°C 82% - N16091.8 kmh N -- 30.07 in1018.3 mb 0.00 in0.0 mm 0.00 in/hr0.0 mm/hr 0.00 in0.0 mm
05:20 AM 51.4°F10.8°C 45.8°F7.7°C 81% - N16091.8 kmh N -- 30.07 in1018.3 mb 0.00 in0.0 mm 0.00 in/hr0.0 mm/hr 0.00 in0.0 mm
05:15 AM 51.6°F10.9°C 45.9°F7.7°C 81% - N16091.8 kmh N -- 30.07 in1018.3 mb 0.00 in0.0 mm 0.00 in/hr0.0 mm/hr 0.00 in0.0 mm
05:10 AM 51.6°F10.9°C 45.9°F7.7°C 81% - N16091.8 kmh N -- 30.08 in1018.6 mb 0.00 in0.0 mm 0.00 in/hr0.0 mm/hr 0.00 in0.0 mm
05:05 AM 51.9°F11.1°C 46.0°F7.8°C 81% - N16091.8 kmh N -- 30.07 in1018.3 mb 0.00 in0.0 mm 0.00 in/hr0.0 mm/hr 0.00 in0.0 mm
04:59 AM 51.9°F11.1°C 46.0°F7.8°C 81% - N16091.8 kmh N -- 30.07 in1018.3 mb 0.00 in0.0 mm 0.00 in/hr0.0 mm/hr 0.00 in0.0 mm
04:54 AM 51.9°F11.1°C 46.0°F7.8°C 81% - N16091.8 kmh N -- 30.07 in1018.3 mb 0.00 in0.0 mm 0.00 in/hr0.0 mm/hr 0.00 in0.0 mm
04:49 AM 51.9°F11.1°C 46.0°F7.8°C 81% - N16091.8 kmh N -- 30.07 in1018.3 mb 0.00 in0.0 mm 0.00 in/hr0.0 mm/hr 0.00 in0.0 mm
04:44 AM 51.9°F11.1°C 46.0°F7.8°C 81% - N16091.8 kmh N -- 30.07 in1018.3 mb 0.00 in0.0 mm 0.00 in/hr0.0 mm/hr 0.00 in0.0 mm
04:39 AM 51.9°F11.1°C 46.0°F7.8°C 81% - N16091.8 kmh N -- 30.07 in1018.3 mb 0.00 in0.0 mm 0.00 in/hr0.0 mm/hr 0.00 in0.0 mm
04:34 AM 51.9°F11.1°C 46.0°F7.8°C 80% - N16091.8 kmh N -- 30.07 in1018.3 mb 0.00 in0.0 mm 0.00 in/hr0.0 mm/hr 0.00 in0.0 mm
04:29 AM 52.1°F11.2°C 46.2°F7.9°C 80% - N16091.8 kmh N -- 30.07 in1018.3 mb 0.00 in0.0 mm 0.00 in/hr0.0 mm/hr 0.00 in0.0 mm
04:24 AM 52.1°F11.2°C 46.2°F7.9°C 80% - N16091.8 kmh N -- 30.07 in1018.3 mb 0.00 in0.0 mm 0.00 in/hr0.0 mm/hr 0.00 in0.0 mm
04:19 AM 52.1°F11.2°C 46.2°F7.9°C 80% - N16091.8 kmh N -- 30.07 in1018.3 mb 0.00 in0.0 mm 0.00 in/hr0.0 mm/hr 0.00 in0.0 mm
04:14 AM 52.3°F11.3°C 46.4°F8.0°C 80% - N16091.8 kmh N -- 30.07 in1018.3 mb 0.00 in0.0 mm 0.00 in/hr0.0 mm/hr 0.00 in0.0 mm
04:09 AM 52.3°F11.3°C 46.4°F8.0°C 80% - N16091.8 kmh N -- 30.07 in1018.3 mb 0.00 in0.0 mm 0.00 in/hr0.0 mm/hr 0.00 in0.0 mm
04:04 AM 52.5°F11.4°C 46.5°F8.1°C 80% - N16091.8 kmh N -- 30.07 in1018.3 mb 0.00 in0.0 mm 0.00 in/hr0.0 mm/hr 0.00 in0.0 mm
03:59 AM 52.5°F11.4°C 46.5°F8.1°C 80% - N16091.8 kmh N -- 30.07 in1018.3 mb 0.00 in0.0 mm 0.00 in/hr0.0 mm/hr 0.00 in0.0 mm
03:54 AM 52.5°F11.4°C 46.5°F8.1°C 80% - N16091.8 kmh N -- 30.08 in1018.6 mb 0.00 in0.0 mm 0.00 in/hr0.0 mm/hr 0.00 in0.0 mm
03:49 AM 52.5°F11.4°C 46.5°F8.1°C 79% - N16091.8 kmh N -- 30.08 in1018.6 mb 0.00 in0.0 mm 0.00 in/hr0.0 mm/hr 0.00 in0.0 mm
03:44 AM 52.7°F11.5°C 46.7°F8.2°C 79% - N16091.8 kmh N -- 30.08 in1018.6 mb 0.00 in0.0 mm 0.00 in/hr0.0 mm/hr 0.00 in0.0 mm
03:39 AM 52.8°F11.6°C 46.5°F8.1°C 79% - N16091.8 kmh N -- 30.08 in1018.6 mb 0.00 in0.0 mm 0.00 in/hr0.0 mm/hr 0.00 in0.0 mm
03:34 AM 52.8°F11.6°C 46.5°F8.1°C 79% - N16091.8 kmh N -- 30.07 in1018.3 mb 0.00 in0.0 mm 0.00 in/hr0.0 mm/hr 0.00 in0.0 mm
03:29 AM 52.8°F11.6°C 46.5°F8.1°C 79% - N16091.8 kmh N -- 30.08 in1018.6 mb 0.00 in0.0 mm 0.00 in/hr0.0 mm/hr 0.00 in0.0 mm
03:24 AM 52.8°F11.6°C 46.5°F8.1°C 79% - N16091.8 kmh N -- 30.08 in1018.6 mb 0.00 in0.0 mm 0.00 in/hr0.0 mm/hr 0.00 in0.0 mm
03:19 AM 52.8°F11.6°C 46.5°F8.1°C 79% - N16091.8 kmh N -- 30.08 in1018.6 mb 0.00 in0.0 mm 0.00 in/hr0.0 mm/hr 0.00 in0.0 mm
03:14 AM 53.0°F11.7°C 46.4°F8.0°C 78% - N16091.8 kmh N -- 30.08 in1018.6 mb 0.00 in0.0 mm 0.00 in/hr0.0 mm/hr 0.00 in0.0 mm
03:09 AM 53.2°F11.8°C 46.5°F8.1°C 78% - N16091.8 kmh N -- 30.08 in1018.6 mb 0.00 in0.0 mm 0.00 in/hr0.0 mm/hr 0.00 in0.0 mm
03:04 AM 53.2°F11.8°C 46.5°F8.1°C 78% - N16091.8 kmh N -- 30.08 in1018.6 mb 0.00 in0.0 mm 0.00 in/hr0.0 mm/hr 0.00 in0.0 mm
02:59 AM 53.4°F11.9°C 46.7°F8.2°C 78% - N16091.8 kmh N -- 30.08 in1018.6 mb 0.00 in0.0 mm 0.00 in/hr0.0 mm/hr 0.00 in0.0 mm
02:54 AM 53.4°F11.9°C 46.7°F8.2°C 78% - N16091.8 kmh N -- 30.08 in1018.6 mb 0.00 in0.0 mm 0.00 in/hr0.0 mm/hr 0.00 in0.0 mm
02:49 AM 53.4°F11.9°C 46.7°F8.2°C 78% - N16091.8 kmh N -- 30.08 in1018.6 mb 0.00 in0.0 mm 0.00 in/hr0.0 mm/hr 0.00 in0.0 mm
02:44 AM 53.4°F11.9°C 46.7°F8.2°C 78% - N16091.8 kmh N -- 30.08 in1018.6 mb 0.00 in0.0 mm 0.00 in/hr0.0 mm/hr 0.00 in0.0 mm
02:39 AM 53.6°F12.0°C 46.9°F8.3°C 78% - N16091.8 kmh N -- 30.08 in1018.6 mb 0.00 in0.0 mm 0.00 in/hr0.0 mm/hr 0.00 in0.0 mm
02:34 AM 53.7°F12.1°C 47.1°F8.4°C 78% - N16091.8 kmh N -- 30.09 in1019.0 mb 0.00 in0.0 mm 0.00 in/hr0.0 mm/hr 0.00 in0.0 mm
02:29 AM 53.7°F12.1°C 47.1°F8.4°C 78% - N16091.8 kmh N -- 30.09 in1019.0 mb 0.00 in0.0 mm 0.00 in/hr0.0 mm/hr 0.00 in0.0 mm
02:24 AM 53.9°F12.2°C 47.2°F8.4°C 78% - N16091.8 kmh N -- 30.09 in1019.0 mb 0.00 in0.0 mm 0.00 in/hr0.0 mm/hr 0.00 in0.0 mm
02:19 AM 54.1°F12.3°C 47.0°F8.3°C 77% - N16091.8 kmh N -- 30.09 in1019.0 mb 0.00 in0.0 mm 0.00 in/hr0.0 mm/hr 0.00 in0.0 mm
02:14 AM 54.3°F12.4°C 47.2°F8.4°C 77% - N16091.8 kmh N -- 30.09 in1019.0 mb 0.00 in0.0 mm 0.00 in/hr0.0 mm/hr 0.00 in0.0 mm
02:09 AM 54.5°F12.5°C 47.4°F8.6°C 77% - N16091.8 kmh N -- 30.09 in1019.0 mb 0.00 in0.0 mm 0.00 in/hr0.0 mm/hr 0.00 in0.0 mm
02:04 AM 54.6°F12.6°C 47.5°F8.6°C 77% - N16091.8 kmh N -- 30.09 in1019.0 mb 0.00 in0.0 mm 0.00 in/hr0.0 mm/hr 0.00 in0.0 mm
01:59 AM 55.0°F12.8°C 47.9°F8.8°C 77% - N16091.8 kmh N -- 30.09 in1019.0 mb 0.00 in0.0 mm 0.00 in/hr0.0 mm/hr 0.00 in0.0 mm
01:54 AM 55.2°F12.9°C 48.0°F8.9°C 77% - N16091.8 kmh N -- 30.09 in1019.0 mb 0.00 in0.0 mm 0.00 in/hr0.0 mm/hr 0.00 in0.0 mm
01:49 AM 55.2°F12.9°C 48.0°F8.9°C 77% - N16091.8 kmh N -- 30.09 in1019.0 mb 0.00 in0.0 mm 0.00 in/hr0.0 mm/hr 0.00 in0.0 mm
01:44 AM 55.4°F13.0°C 48.2°F9.0°C 77% - N16091.8 kmh N -- 30.09 in1019.0 mb 0.00 in0.0 mm 0.00 in/hr0.0 mm/hr 0.00 in0.0 mm
01:39 AM 55.5°F13.1°C 48.0°F8.9°C 76% - N16091.8 kmh N -- 30.09 in1019.0 mb 0.00 in0.0 mm 0.00 in/hr0.0 mm/hr 0.00 in0.0 mm
01:34 AM 55.5°F13.1°C 48.0°F8.9°C 76% - N16091.8 kmh N -- 30.09 in1019.0 mb 0.00 in0.0 mm 0.00 in/hr0.0 mm/hr 0.00 in0.0 mm
01:28 AM 55.5°F13.1°C 48.0°F8.9°C 76% - N16091.8 kmh N -- 30.09 in1019.0 mb 0.00 in0.0 mm 0.00 in/hr0.0 mm/hr 0.00 in0.0 mm
01:24 AM 55.7°F13.2°C 47.9°F8.8°C 76% - N16091.8 kmh N -- 30.09 in1019.0 mb 0.00 in0.0 mm 0.00 in/hr0.0 mm/hr 0.00 in0.0 mm
01:19 AM 55.7°F13.2°C 47.9°F8.8°C 76% - N16091.8 kmh N -- 30.09 in1019.0 mb 0.00 in0.0 mm 0.00 in/hr0.0 mm/hr 0.00 in0.0 mm
01:14 AM 55.7°F13.2°C 47.9°F8.8°C 75% - N16091.8 kmh N -- 30.09 in1019.0 mb 0.00 in0.0 mm 0.00 in/hr0.0 mm/hr 0.00 in0.0 mm
01:08 AM 55.9°F13.3°C 48.0°F8.9°C 75% - N16091.8 kmh N -- 30.09 in1019.0 mb 0.00 in0.0 mm 0.00 in/hr0.0 mm/hr 0.00 in0.0 mm
01:03 AM 55.9°F13.3°C 48.0°F8.9°C 75% - N16091.8 kmh N -- 30.09 in1019.0 mb 0.00 in0.0 mm 0.00 in/hr0.0 mm/hr 0.00 in0.0 mm